Time;durP1;ratioP1;P1;durP2;ratioP2;P2;SDS_P1;SDS_P2;PMS_P1;PMS_P2;Temp;Humidity;BMP_temperature;BMP_pressure;BME280_temperature;BME280_humidity;BME280_pressure;Samples;Min_cycle;Max_cycle;Signal;HPM_P1;HPM_P2
2021/05/20 00:02:12;;;;;;;28.05;19.67;;;10.80;99.90;;;;;;4967716;28;20100;-74
2021/05/20 00:04:38;;;;;;;27.92;20.88;;;10.60;99.90;;;;;;4960031;28;20046;-74
2021/05/20 00:07:04;;;;;;;23.27;18.20;;;10.60;99.90;;;;;;4959231;28;20475;-74
2021/05/20 00:09:30;;;;;;;24.70;18.67;;;10.50;99.90;;;;;;4959408;28;20020;-75
2021/05/20 00:11:56;;;;;;;26.25;19.73;;;10.40;99.90;;;;;;4955793;28;20158;-74
2021/05/20 00:14:23;;;;;;;26.80;21.23;;;10.40;99.90;;;;;;4959764;28;20110;-73
2021/05/20 00:16:48;;;;;;;29.58;21.58;;;10.40;99.90;;;;;;4967707;28;20072;-74
2021/05/20 00:19:14;;;;;;;26.13;20.75;;;10.40;99.90;;;;;;4962384;28;20034;-74
2021/05/20 00:21:40;;;;;;;26.77;20.65;;;10.30;99.90;;;;;;4962915;28;20045;-74
2021/05/20 00:24:06;;;;;;;26.45;20.15;;;10.40;99.90;;;;;;4958880;28;20049;-74
2021/05/20 00:26:33;;;;;;;27.80;20.35;;;10.30;99.90;;;;;;4961059;28;20081;-74
2021/05/20 00:28:59;;;;;;;31.98;21.13;;;10.20;99.90;;;;;;4960851;28;20023;-74
2021/05/20 00:31:25;;;;;;;30.30;21.95;;;10.10;99.90;;;;;;4959857;28;20090;-70
2021/05/20 00:33:50;;;;;;;33.05;23.02;;;10.10;99.90;;;;;;4958511;28;20031;-74
2021/05/20 00:36:16;;;;;;;31.92;22.77;;;10.10;99.90;;;;;;4959964;28;20051;-74
2021/05/20 00:38:42;;;;;;;34.83;23.92;;;10.00;99.90;;;;;;4963290;28;20098;-75
2021/05/20 00:41:08;;;;;;;33.53;23.45;;;10.10;99.90;;;;;;4958597;28;20039;-73
2021/05/20 00:43:34;;;;;;;37.58;25.27;;;10.10;99.90;;;;;;4957564;28;20035;-74
2021/05/20 00:46:00;;;;;;;35.30;24.88;;;10.10;99.90;;;;;;4960058;28;20031;-74
2021/05/20 00:48:26;;;;;;;38.28;25.42;;;10.00;99.90;;;;;;4966767;28;20059;-74
2021/05/20 00:50:52;;;;;;;35.00;24.45;;;10.00;99.90;;;;;;4966088;28;20046;-73
2021/05/20 00:53:17;;;;;;;39.13;24.85;;;9.90;99.90;;;;;;4965580;28;20050;-74
2021/05/20 00:55:43;;;;;;;40.33;26.83;;;9.90;99.90;;;;;;4963591;28;20018;-74
2021/05/20 00:58:09;;;;;;;40.65;26.48;;;9.90;99.90;;;;;;4963980;28;20027;-74
2021/05/20 01:00:36;;;;;;;36.42;25.38;;;9.80;99.90;;;;;;4963580;28;20039;-74
2021/05/20 01:03:02;;;;;;;34.95;24.25;;;9.80;99.90;;;;;;4959658;28;20484;-74
2021/05/20 01:05:28;;;;;;;36.28;24.52;;;9.80;99.90;;;;;;4957162;28;20399;-72
2021/05/20 01:07:55;;;;;;;40.80;27.83;;;9.90;99.90;;;;;;4968675;28;20019;-74
2021/05/20 01:10:21;;;;;;;44.35;30.10;;;9.80;99.90;;;;;;4963392;28;20062;-74
2021/05/20 01:12:47;;;;;;;41.85;29.33;;;9.80;99.90;;;;;;4969455;28;20022;-74
2021/05/20 01:15:29;;;;;;;48.65;30.65;;;9.80;99.90;;;;;;4970506;28;20041;-75
2021/05/20 01:18:01;;;;;;;43.33;27.98;;;9.70;99.90;;;;;;4970455;28;20027;-73
2021/05/20 01:20:29;;;;;;;46.00;29.25;;;9.70;99.90;;;;;;4972248;28;20041;-75
2021/05/20 01:23:06;;;;;;;47.38;27.85;;;9.70;99.90;;;;;;4965544;28;20253;-75
2021/05/20 01:25:33;;;;;;;38.17;25.70;;;9.60;99.90;;;;;;4959339;28;20027;-74
2021/05/20 01:28:03;;;;;;;47.50;29.50;;;9.60;99.90;;;;;;4968663;28;20019;-74
2021/05/20 01:30:34;;;;;;;49.17;31.58;;;9.70;99.90;;;;;;4966387;28;20102;-74
2021/05/20 01:32:59;;;;;;;52.63;32.72;;;9.80;99.90;;;;;;4959855;28;20110;-74
2021/05/20 01:35:25;;;;;;;54.60;32.38;;;9.80;99.90;;;;;;4962470;28;20452;-74
2021/05/20 01:38:10;;;;;;;46.05;30.17;;;9.80;99.90;;;;;;4972353;28;20097;-74
2021/05/20 01:40:36;;;;;;;54.10;32.15;;;9.80;99.90;;;;;;4963695;28;20118;-74
2021/05/20 01:43:02;;;;;;;49.10;31.48;;;9.80;99.90;;;;;;4961697;28;20035;-73
2021/05/20 01:45:27;;;;;;;52.58;33.75;;;9.80;99.90;;;;;;4965963;28;20042;-74
2021/05/20 01:47:53;;;;;;;50.55;32.25;;;9.80;99.90;;;;;;4961202;28;20029;-73
2021/05/20 01:50:21;;;;;;;46.55;30.02;;;9.80;99.90;;;;;;4961763;28;20555;-73
2021/05/20 01:52:47;;;;;;;48.47;30.20;;;9.80;99.90;;;;;;4971784;28;20513;-75
2021/05/20 01:55:13;;;;;;;52.40;33.00;;;9.80;99.90;;;;;;4960169;28;20055;-74
2021/05/20 01:57:38;;;;;;;50.15;31.40;;;9.80;99.90;;;;;;4969981;28;20026;-75
2021/05/20 02:00:05;;;;;;;45.00;29.13;;;9.80;99.90;;;;;;4962699;28;20510;-70
2021/05/20 02:02:30;;;;;;;46.35;29.27;;;9.70;99.90;;;;;;4966639;28;20037;-75
2021/05/20 02:04:56;;;;;;;56.38;33.78;;;9.70;99.90;;;;;;4958725;28;20028;-74
2021/05/20 02:07:22;;;;;;;61.63;34.45;;;9.70;99.90;;;;;;4962944;28;20488;-73
2021/05/20 02:09:47;;;;;;;56.38;34.20;;;9.60;99.90;;;;;;4962990;28;20046;-75
2021/05/20 02:12:13;;;;;;;53.70;33.13;;;9.50;99.90;;;;;;4960333;28;20123;-75
2021/05/20 02:14:38;;;;;;;47.92;31.15;;;9.60;99.90;;;;;;4967631;28;20031;-75
2021/05/20 02:17:04;;;;;;;48.88;31.65;;;9.50;99.90;;;;;;4965091;28;20038;-73
2021/05/20 02:19:30;;;;;;;54.13;33.67;;;9.60;99.90;;;;;;4966971;28;20399;-74
2021/05/20 02:21:55;;;;;;;47.30;31.27;;;9.50;99.90;;;;;;4960493;28;20126;-75
2021/05/20 02:24:21;;;;;;;49.05;31.38;;;9.50;99.90;;;;;;4967650;28;20464;-74
2021/05/20 02:26:47;;;;;;;52.83;33.03;;;9.40;99.90;;;;;;4970678;28;20101;-75
2021/05/20 02:29:12;;;;;;;50.55;32.65;;;9.50;99.90;;;;;;4955919;28;20472;-75
2021/05/20 02:31:38;;;;;;;55.22;35.00;;;9.40;99.90;;;;;;4963929;28;20030;-74
2021/05/20 02:34:04;;;;;;;56.65;34.80;;;9.40;99.90;;;;;;4963552;28;20114;-73
2021/05/20 02:36:29;;;;;;;59.15;36.50;;;9.40;99.90;;;;;;4960784;28;20027;-74
2021/05/20 02:38:55;;;;;;;57.58;35.80;;;9.30;99.90;;;;;;4956454;28;20407;-75
2021/05/20 02:41:21;;;;;;;56.45;34.50;;;9.30;99.90;;;;;;4963735;28;20050;-75
2021/05/20 02:43:46;;;;;;;51.70;34.00;;;9.30;99.90;;;;;;4964261;28;20101;-75
2021/05/20 02:46:12;;;;;;;52.28;33.10;;;9.20;99.90;;;;;;4962507;28;20030;-73
2021/05/20 02:48:38;;;;;;;51.50;34.10;;;9.20;99.90;;;;;;4955849;28;20513;-74
2021/05/20 02:51:03;;;;;;;53.05;35.95;;;9.20;99.90;;;;;;4964800;28;20483;-75
2021/05/20 02:53:29;;;;;;;57.50;37.20;;;9.20;99.90;;;;;;4964824;28;20035;-74
2021/05/20 02:55:55;;;;;;;58.63;37.50;;;9.10;99.90;;;;;;4963676;28;20049;-75
2021/05/20 02:58:21;;;;;;;54.60;35.65;;;9.10;99.90;;;;;;4964585;28;20447;-74
2021/05/20 03:00:48;;;;;;;59.65;38.40;;;9.10;99.90;;;;;;4966374;28;20030;-74
2021/05/20 03:03:15;;;;;;;63.25;38.63;;;9.00;99.90;;;;;;4967095;28;20046;-75
2021/05/20 03:05:40;;;;;;;59.83;37.63;;;9.00;99.90;;;;;;4959468;28;20081;-75
2021/05/20 03:08:09;;;;;;;60.13;38.47;;;9.10;99.90;;;;;;4958392;28;20039;-75
2021/05/20 03:10:35;;;;;;;55.33;36.55;;;9.10;99.90;;;;;;4959900;28;20023;-75
2021/05/20 03:13:00;;;;;;;63.58;37.28;;;9.00;99.90;;;;;;4963355;28;20081;-74
2021/05/20 03:15:26;;;;;;;61.40;38.05;;;9.00;99.90;;;;;;4962268;28;20058;-73
2021/05/20 03:17:52;;;;;;;58.80;38.63;;;8.90;99.90;;;;;;4962884;28;20031;-74
2021/05/20 03:20:18;;;;;;;55.10;35.90;;;8.90;99.90;;;;;;4961178;28;20042;-73
2021/05/20 03:22:46;;;;;;;56.97;36.92;;;8.90;99.90;;;;;;4958766;28;20035;-75
2021/05/20 03:25:12;;;;;;;62.67;39.05;;;8.90;99.90;;;;;;4957710;28;20038;-71
2021/05/20 03:27:38;;;;;;;66.95;38.78;;;8.80;99.90;;;;;;4961817;28;20030;-75
2021/05/20 03:30:04;;;;;;;58.00;38.35;;;8.90;99.90;;;;;;4959242;28;20023;-74
2021/05/20 03:32:30;;;;;;;62.22;39.47;;;8.90;99.90;;;;;;4956688;28;20034;-74
2021/05/20 03:34:55;;;;;;;59.30;36.42;;;8.80;99.90;;;;;;4964814;28;20031;-74
2021/05/20 03:37:21;;;;;;;52.70;35.42;;;8.80;99.90;;;;;;4964681;28;20027;-74
2021/05/20 03:39:47;;;;;;;59.30;38.28;;;8.80;99.90;;;;;;4966762;28;20035;-74
2021/05/20 03:42:12;;;;;;;60.40;36.78;;;8.70;99.90;;;;;;4966292;28;20423;-74
2021/05/20 03:44:38;;;;;;;53.70;35.55;;;8.80;99.90;;;;;;4962122;28;20063;-74
2021/05/20 03:47:03;;;;;;;54.50;35.03;;;8.80;99.90;;;;;;4968942;28;20121;-74
2021/05/20 03:49:29;;;;;;;54.60;36.20;;;8.70;99.90;;;;;;4961546;28;20637;-74
2021/05/20 03:51:55;;;;;;;57.13;35.45;;;8.80;99.90;;;;;;4971625;28;20089;-74
2021/05/20 03:54:20;;;;;;;55.55;35.08;;;8.80;99.90;;;;;;4970509;28;20039;-74
2021/05/20 03:56:46;;;;;;;53.03;32.67;;;8.80;99.90;;;;;;4968724;28;20035;-74
2021/05/20 03:59:12;;;;;;;62.72;35.45;;;8.70;99.90;;;;;;4963535;28;20095;-73
2021/05/20 04:01:40;;;;;;;54.92;32.70;;;8.90;99.90;;;;;;4967632;28;20056;-74
2021/05/20 04:04:06;;;;;;;50.10;33.42;;;8.90;99.90;;;;;;4963621;28;20023;-74
2021/05/20 04:06:31;;;;;;;54.22;35.35;;;9.00;99.90;;;;;;4961084;28;20023;-71
2021/05/20 04:08:57;;;;;;;57.30;35.42;;;9.10;99.90;;;;;;4966351;28;20388;-74
2021/05/20 04:11:23;;;;;;;63.53;37.33;;;9.20;99.90;;;;;;4967403;28;20035;-72
2021/05/20 04:13:48;;;;;;;77.55;39.75;;;9.30;99.90;;;;;;4961642;28;20062;-74
2021/05/20 04:16:14;;;;;;;105.47;44.38;;;9.40;99.90;;;;;;4966661;28;20023;-74
2021/05/20 04:18:41;;;;;;;87.68;39.30;;;9.40;99.90;;;;;;4962133;28;20027;-73
2021/05/20 04:21:07;;;;;;;89.85;41.95;;;9.40;99.90;;;;;;4966199;28;20047;-74
2021/05/20 04:23:33;;;;;;;82.18;42.92;;;9.50;99.90;;;;;;4964249;28;20045;-73
2021/05/20 04:25:58;;;;;;;79.38;42.47;;;9.60;99.90;;;;;;4958797;28;20027;-73
2021/05/20 04:28:24;;;;;;;74.78;41.17;;;9.60;99.90;;;;;;4960428;28;20086;-74
2021/05/20 04:30:50;;;;;;;75.38;40.53;;;9.70;99.90;;;;;;4965898;28;20154;-74
2021/05/20 04:33:16;;;;;;;71.03;40.83;;;9.70;99.90;;;;;;4962121;28;20094;-71
2021/05/20 04:35:43;;;;;;;114.57;44.15;;;9.80;99.90;;;;;;4975212;28;20074;-78
2021/05/20 04:38:10;;;;;;;88.97;43.30;;;9.90;99.90;;;;;;4958681;28;20023;-74
2021/05/20 04:40:37;;;;;;;72.00;41.35;;;9.90;99.90;;;;;;4972624;28;20047;-71
2021/05/20 04:43:03;;;;;;;68.20;39.42;;;10.00;99.90;;;;;;4960035;28;20385;-74
2021/05/20 04:45:29;;;;;;;84.35;42.50;;;10.20;99.90;;;;;;4963046;28;20035;-75
2021/05/20 04:47:55;;;;;;;78.85;42.05;;;10.20;99.90;;;;;;4962507;28;20500;-75
2021/05/20 04:50:21;;;;;;;91.50;45.60;;;10.30;99.90;;;;;;4959216;28;20027;-74
2021/05/20 04:52:47;;;;;;;95.32;46.67;;;10.40;99.90;;;;;;4966043;28;20034;-74
2021/05/20 04:55:14;;;;;;;245.30;66.75;;;10.40;99.90;;;;;;4968744;28;20150;-74
2021/05/20 04:57:40;;;;;;;157.25;53.55;;;10.50;99.90;;;;;;4969355;28;20030;-73
2021/05/20 05:00:09;;;;;;;130.93;51.25;;;10.50;99.90;;;;;;4959226;28;20035;-74
2021/05/20 05:02:34;;;;;;;114.85;48.35;;;10.60;99.90;;;;;;4966945;28;20020;-73
2021/05/20 05:05:00;;;;;;;162.68;54.17;;;10.60;99.90;;;;;;4966093;28;20097;-74
2021/05/20 05:07:26;;;;;;;132.20;49.55;;;10.60;99.90;;;;;;4962174;28;20384;-74
2021/05/20 05:09:51;;;;;;;148.65;52.85;;;10.60;99.90;;;;;;4967224;28;20085;-74
2021/05/20 05:12:17;;;;;;;138.27;53.60;;;10.60;99.90;;;;;;4968076;28;20510;-74
2021/05/20 05:14:43;;;;;;;141.65;53.38;;;10.70;99.90;;;;;;4970875;28;20433;-74
2021/05/20 05:17:09;;;;;;;290.33;66.30;;;10.70;99.90;;;;;;4961000;28;20086;-74
2021/05/20 05:19:34;;;;;;;222.05;58.20;;;10.80;99.90;;;;;;4970760;28;20443;-74
2021/05/20 05:22:02;;;;;;;160.93;55.90;;;10.80;99.90;;;;;;4971920;28;20075;-75
2021/05/20 05:24:32;;;;;;;217.52;53.70;;;10.90;99.90;;;;;;4966018;28;20106;-76
2021/05/20 05:26:58;;;;;;;227.68;56.22;;;10.80;99.90;;;;;;4966459;28;20093;-74
2021/05/20 05:29:23;;;;;;;375.40;67.20;;;10.90;99.90;;;;;;4957564;28;21345;-75
2021/05/20 05:31:49;;;;;;;194.75;57.40;;;10.80;99.90;;;;;;4965078;28;20399;-75
2021/05/20 05:34:15;;;;;;;272.33;61.13;;;10.90;99.90;;;;;;4967359;28;20030;-71
2021/05/20 05:36:41;;;;;;;172.32;60.08;;;10.90;99.90;;;;;;4963361;28;20105;-75
2021/05/20 05:39:07;;;;;;;198.65;61.97;;;11.00;99.90;;;;;;4962829;28;20122;-74
2021/05/20 05:41:33;;;;;;;464.40;79.43;;;11.10;99.90;;;;;;4960887;28;20117;-74
2021/05/20 05:43:58;;;;;;;200.13;63.28;;;10.90;99.90;;;;;;4961304;28;20023;-75
2021/05/20 05:46:24;;;;;;;339.17;73.22;;;10.90;99.90;;;;;;4957877;28;21005;-75
2021/05/20 05:48:50;;;;;;;208.98;63.22;;;10.90;99.90;;;;;;4961965;28;20030;-75
2021/05/20 05:51:18;;;;;;;408.50;80.85;;;11.00;99.90;;;;;;4964183;28;20040;-75
2021/05/20 05:53:44;;;;;;;222.82;64.35;;;11.10;99.90;;;;;;4962878;28;20382;-74
2021/05/20 05:56:10;;;;;;;277.27;68.60;;;11.10;99.90;;;;;;4957826;28;20114;-75
2021/05/20 05:58:36;;;;;;;280.60;62.22;;;11.20;99.90;;;;;;4963514;28;20058;-74
2021/05/20 06:01:03;;;;;;;177.93;57.05;;;11.20;99.90;;;;;;4961687;28;20073;-75
2021/05/20 06:03:29;;;;;;;213.82;71.30;;;11.20;99.90;;;;;;4956975;28;20492;-75
2021/05/20 06:05:55;;;;;;;320.17;68.28;;;11.30;99.90;;;;;;4964148;28;20650;-75
2021/05/20 06:08:21;;;;;;;318.02;65.53;;;11.30;99.90;;;;;;4969860;28;20507;-73
2021/05/20 06:10:47;;;;;;;196.32;60.30;;;11.40;99.90;;;;;;4966099;28;20031;-75
2021/05/20 06:13:13;;;;;;;308.17;65.32;;;11.50;99.90;;;;;;4968716;28;20027;-76
2021/05/20 06:15:39;;;;;;;237.75;58.83;;;11.50;99.90;;;;;;4966975;28;20050;-77
2021/05/20 06:18:05;;;;;;;223.95;59.55;;;11.40;99.90;;;;;;4969072;28;20050;-74
2021/05/20 06:20:31;;;;;;;218.18;57.38;;;11.50;99.90;;;;;;4959610;28;20039;-76
2021/05/20 06:22:57;;;;;;;222.30;61.03;;;11.50;99.90;;;;;;4962123;28;20027;-80
2021/05/20 06:25:23;;;;;;;185.93;56.35;;;11.50;99.90;;;;;;4959786;28;20033;-76
2021/05/20 06:27:49;;;;;;;185.95;55.72;;;11.50;99.90;;;;;;4965084;28;20019;-76
2021/05/20 06:30:16;;;;;;;287.00;67.47;;;11.50;99.90;;;;;;4959677;28;20039;-75
2021/05/20 06:32:41;;;;;;;211.15;58.58;;;11.50;99.90;;;;;;4964832;28;20027;-76
2021/05/20 06:35:07;;;;;;;247.05;63.65;;;11.50;99.90;;;;;;4960608;28;20034;-76
2021/05/20 06:37:34;;;;;;;271.55;70.93;;;11.50;99.90;;;;;;4967384;28;20031;-76
2021/05/20 06:40:00;;;;;;;192.27;56.83;;;11.60;99.90;;;;;;4967812;28;20117;-77
2021/05/20 06:42:26;;;;;;;186.75;59.70;;;11.50;99.90;;;;;;4966566;28;20527;-79
2021/05/20 06:44:52;;;;;;;174.10;57.90;;;11.60;99.90;;;;;;4960804;28;20035;-75
2021/05/20 06:47:18;;;;;;;182.45;59.47;;;11.70;99.90;;;;;;4961537;28;20033;-77
2021/05/20 06:49:43;;;;;;;187.98;62.20;;;11.80;99.90;;;;;;4958768;28;20082;-79
2021/05/20 06:52:09;;;;;;;179.07;61.50;;;11.90;99.90;;;;;;4957676;28;20387;-79
2021/05/20 06:54:35;;;;;;;182.38;62.80;;;11.90;99.90;;;;;;4960889;28;20086;-80
2021/05/20 06:57:07;;;;;;;186.93;62.17;;;12.00;99.90;;;;;;4961446;28;20021;-78
2021/05/20 07:02:18;;;;;;;181.80;62.10;;;12.00;99.90;;;;;;4956028;28;20046;-79
2021/05/20 07:04:43;;;;;;;165.35;60.15;;;12.00;99.90;;;;;;4958231;28;20507;-80
2021/05/20 07:07:09;;;;;;;158.18;56.15;;;12.10;99.90;;;;;;4953174;28;20035;-82
2021/05/20 07:09:37;;;;;;;155.07;60.42;;;12.20;99.90;;;;;;4943553;28;20026;-80
2021/05/20 07:12:04;;;;;;;131.27;57.35;;;12.20;99.90;;;;;;4969137;28;20026;-81
2021/05/20 07:14:30;;;;;;;128.88;57.85;;;12.20;99.90;;;;;;4963183;28;20044;-81
2021/05/20 07:16:56;;;;;;;131.13;59.25;;;12.20;99.90;;;;;;4968436;28;20043;-81
2021/05/20 07:19:22;;;;;;;124.45;53.75;;;12.30;99.90;;;;;;4968992;28;20037;-80
2021/05/20 07:21:48;;;;;;;115.22;54.20;;;12.30;99.90;;;;;;4972266;28;20066;-79
2021/05/20 07:24:15;;;;;;;117.78;55.65;;;12.30;99.90;;;;;;4961631;28;20054;-81
2021/05/20 07:26:41;;;;;;;110.25;54.35;;;12.30;99.90;;;;;;4965177;28;20038;-80
2021/05/20 07:29:06;;;;;;;98.38;50.35;;;12.30;99.90;;;;;;4968674;28;20039;-84
2021/05/20 07:31:33;;;;;;;111.03;54.55;;;12.40;99.90;;;;;;4972048;28;20066;-83
2021/05/20 07:33:59;;;;;;;94.75;50.28;;;12.50;99.90;;;;;;4962183;28;20476;-83
2021/05/20 07:36:25;;;;;;;107.57;53.08;;;12.60;99.90;;;;;;4961772;28;20039;-83
2021/05/20 07:38:50;;;;;;;108.57;55.67;;;12.60;99.90;;;;;;4965724;28;20025;-80
2021/05/20 07:41:17;;;;;;;114.72;58.58;;;12.70;99.90;;;;;;4968137;28;20039;-80
2021/05/20 07:43:43;;;;;;;106.00;54.80;;;12.70;99.90;;;;;;4960010;28;20086;-81
2021/05/20 07:46:09;;;;;;;99.75;54.20;;;12.80;99.90;;;;;;4961537;28;20515;-81
2021/05/20 07:48:35;;;;;;;105.10;59.63;;;12.70;99.90;;;;;;4955801;28;20037;-79
2021/05/20 07:51:02;;;;;;;101.80;53.80;;;12.80;99.90;;;;;;4962070;28;20023;-80
2021/05/20 07:53:28;;;;;;;104.68;55.78;;;12.90;99.90;;;;;;4966057;28;20019;-75
2021/05/20 07:55:54;;;;;;;94.10;52.83;;;12.90;99.90;;;;;;4966219;28;20035;-77
2021/05/20 07:58:20;;;;;;;92.38;52.10;;;13.00;99.90;;;;;;4965537;28;20464;-78
2021/05/20 08:00:45;;;;;;;102.88;58.42;;;13.20;99.90;;;;;;4957564;28;20499;-75
2021/05/20 08:03:30;;;;;;;88.05;52.60;;;13.30;99.90;;;;;;4965036;28;20030;-76
2021/05/20 08:11:41;;;;;;;73.47;46.63;;;13.40;99.90;;;;;;4923240;29;20036;-77
2021/05/20 08:14:07;;;;;;;77.50;46.88;;;13.50;99.90;;;;;;4955423;28;20217;-76
2021/05/20 08:16:33;;;;;;;72.57;46.88;;;13.60;99.90;;;;;;4959384;28;20028;-76
2021/05/20 08:18:59;;;;;;;70.15;43.85;;;13.70;99.90;;;;;;4965476;28;20089;-75
2021/05/20 08:21:25;;;;;;;72.55;46.72;;;13.70;99.90;;;;;;4965780;28;20043;-76
2021/05/20 08:23:51;;;;;;;67.00;43.97;;;13.90;99.90;;;;;;4969787;28;20019;-77
2021/05/20 08:26:19;;;;;;;65.82;46.47;;;14.00;99.90;;;;;;4962988;28;20045;-69
2021/05/20 08:28:45;;;;;;;63.08;42.13;;;14.10;99.90;;;;;;4961906;28;20022;-69
2021/05/20 08:31:10;;;;;;;70.90;44.95;;;14.30;99.90;;;;;;4964153;28;20392;-70
2021/05/20 08:33:36;;;;;;;57.55;38.33;;;14.50;99.90;;;;;;4959515;28;20030;-76
2021/05/20 08:36:02;;;;;;;56.10;38.40;;;14.50;99.90;;;;;;4968114;28;20015;-77
2021/05/20 08:38:28;;;;;;;51.75;36.08;;;14.50;99.90;;;;;;4966694;28;20335;-76
2021/05/20 08:40:53;;;;;;;49.97;35.50;;;14.40;99.90;;;;;;4968182;28;20484;-77
2021/05/20 08:43:19;;;;;;;44.33;33.83;;;14.30;99.90;;;;;;4959308;28;20027;-75
2021/05/20 08:45:45;;;;;;;50.65;34.47;;;14.60;99.90;;;;;;4964897;28;20031;-75
2021/05/20 08:48:11;;;;;;;45.53;33.45;;;14.80;99.90;;;;;;4966622;28;20031;-74
2021/05/20 08:50:37;;;;;;;42.85;32.97;;;14.90;99.90;;;;;;4968116;28;20042;-75
2021/05/20 08:53:03;;;;;;;37.45;30.17;;;15.10;99.90;;;;;;4961904;28;20039;-75
2021/05/20 08:55:34;;;;;;;43.78;31.08;;;15.00;99.90;;;;;;4960700;28;20046;-74
2021/05/20 08:58:01;;;;;;;42.15;32.45;;;15.00;99.90;;;;;;4963558;28;20062;-75
2021/05/20 09:00:29;;;;;;;38.28;28.60;;;15.20;99.90;;;;;;4966800;28;20452;-77
2021/05/20 09:03:05;;;;;;;38.83;28.85;;;15.20;99.90;;;;;;4957793;28;20031;-74
2021/05/20 09:05:30;;;;;;;28.35;21.17;;;15.30;99.90;;;;;;4966284;28;20027;-77
2021/05/20 09:07:57;;;;;;;29.13;21.35;;;15.50;99.90;;;;;;4971998;28;20468;-71
2021/05/20 09:10:24;;;;;;;28.00;21.80;;;15.90;99.90;;;;;;4955791;28;20116;-74
2021/05/20 09:12:58;;;;;;;29.60;23.65;;;16.00;99.90;;;;;;4954583;28;20385;-71
2021/05/20 09:15:28;;;;;;;28.23;20.95;;;16.00;99.90;;;;;;4961339;28;20081;-74
2021/05/20 09:18:01;;;;;;;30.23;22.88;;;16.20;99.90;;;;;;4967225;28;20059;-73
2021/05/20 09:20:26;;;;;;;28.02;20.05;;;16.10;99.90;;;;;;4965903;28;20051;-74
2021/05/20 09:23:03;;;;;;;26.15;19.42;;;16.10;99.90;;;;;;4957937;28;20661;-74
2021/05/20 09:25:32;;;;;;;21.52;16.77;;;16.40;99.90;;;;;;4963829;28;20027;-74
2021/05/20 09:27:57;;;;;;;20.85;14.93;;;16.90;99.90;;;;;;4962737;28;20557;-74
2021/05/20 09:30:25;;;;;;;21.95;16.05;;;17.20;99.90;;;;;;4959455;28;20109;-74
2021/05/20 09:32:55;;;;;;;22.17;16.40;;;17.20;99.90;;;;;;4969944;28;20022;-73
2021/05/20 09:35:26;;;;;;;23.23;18.83;;;17.10;99.90;;;;;;4957255;28;20105;-73
2021/05/20 09:38:00;;;;;;;20.88;18.35;;;17.30;99.90;;;;;;4960235;28;20480;-73
2021/05/20 09:40:35;;;;;;;19.40;15.13;;;17.20;99.90;;;;;;4958245;28;20608;-73
2021/05/20 09:43:12;;;;;;;21.05;16.73;;;17.10;99.90;;;;;;4962397;28;20097;-73
2021/05/20 09:45:38;;;;;;;20.30;13.90;;;17.10;99.90;;;;;;4963471;28;20023;-73
2021/05/20 09:48:06;;;;;;;15.98;12.57;;;17.80;99.90;;;;;;4965609;28;20076;-74
2021/05/20 09:50:39;;;;;;;16.08;11.65;;;18.20;99.90;;;;;;4959346;28;20179;-73
2021/05/20 09:53:10;;;;;;;15.75;11.35;;;18.30;99.90;;;;;;4967311;28;20030;-74
2021/05/20 09:55:38;;;;;;;13.05;11.15;;;18.40;99.90;;;;;;4968112;28;20344;-74
2021/05/20 09:58:09;;;;;;;11.20;8.57;;;18.30;99.90;;;;;;4961250;28;20019;-74
2021/05/20 10:00:36;;;;;;;13.43;9.13;;;18.50;99.90;;;;;;4962613;28;20035;-73
2021/05/20 10:03:05;;;;;;;11.88;8.98;;;18.50;99.90;;;;;;4967502;28;20133;-74
2021/05/20 10:05:33;;;;;;;9.30;7.63;;;18.40;99.90;;;;;;4959237;28;20030;-74
2021/05/20 10:08:04;;;;;;;8.73;7.10;;;18.50;99.90;;;;;;4963073;28;20022;-74
2021/05/20 10:10:30;;;;;;;9.05;7.15;;;18.50;99.90;;;;;;4962017;28;20069;-74
2021/05/20 10:12:56;;;;;;;10.15;7.70;;;18.60;99.90;;;;;;4965105;28;20583;-73
2021/05/20 10:15:23;;;;;;;9.82;7.68;;;18.30;99.90;;;;;;4963205;28;20054;-73
2021/05/20 10:17:50;;;;;;;9.18;7.28;;;18.30;99.90;;;;;;4961956;28;20468;-72
2021/05/20 10:20:21;;;;;;;10.73;7.10;;;18.60;99.90;;;;;;4965434;28;20039;-71
2021/05/20 10:22:49;;;;;;;9.95;7.68;;;18.80;99.90;;;;;;4964033;28;20077;-73
2021/05/20 10:25:17;;;;;;;8.40;6.95;;;18.40;99.90;;;;;;4962123;28;20037;-73
2021/05/20 10:27:44;;;;;;;10.02;7.28;;;18.40;99.90;;;;;;4961705;28;20026;-74
2021/05/20 10:30:12;;;;;;;9.43;7.68;;;18.60;99.90;;;;;;4963345;28;20046;-74
2021/05/20 10:32:40;;;;;;;9.73;7.20;;;18.60;99.90;;;;;;4958202;28;20390;-70
2021/05/20 10:35:11;;;;;;;10.30;7.90;;;18.50;99.90;;;;;;4955905;28;20042;-73
2021/05/20 10:37:39;;;;;;;12.82;8.55;;;18.30;99.90;;;;;;4963091;28;20027;-72
2021/05/20 10:40:12;;;;;;;8.27;6.88;;;17.90;99.90;;;;;;4961119;28;20063;-72
2021/05/20 10:42:40;;;;;;;8.10;6.15;;;17.90;99.90;;;;;;4959348;28;20070;-74
2021/05/20 10:45:21;;;;;;;8.57;7.03;;;18.10;99.90;;;;;;4962659;28;20030;-73
2021/05/20 10:48:05;;;;;;;7.53;6.43;;;18.00;99.90;;;;;;4965295;28;20114;-74
2021/05/20 10:50:53;;;;;;;7.18;5.60;;;17.90;99.90;;;;;;4961630;28;20034;-71
2021/05/20 10:53:37;;;;;;;10.75;5.88;;;18.00;99.90;;;;;;4957163;28;20027;-72
2021/05/20 10:56:23;;;;;;;8.32;5.32;;;18.20;99.90;;;;;;4963326;28;20046;-72
2021/05/20 10:58:51;;;;;;;8.27;7.03;;;18.40;99.90;;;;;;4953945;28;20030;-74
2021/05/20 11:01:26;;;;;;;8.85;7.13;;;18.50;99.90;;;;;;4963860;28;20043;-74
2021/05/20 11:03:54;;;;;;;8.20;6.03;;;18.80;99.90;;;;;;4965513;28;20522;-71
2021/05/20 11:06:38;;;;;;;10.15;6.88;;;19.00;99.90;;;;;;4961904;28;20030;-74
2021/05/20 11:09:11;;;;;;;10.82;6.40;;;19.20;99.90;;;;;;4970884;28;20035;-73
2021/05/20 11:11:39;;;;;;;7.53;6.70;;;19.20;99.90;;;;;;4954985;28;20026;-73
2021/05/20 11:14:12;;;;;;;6.22;5.63;;;18.80;99.90;;;;;;4961124;28;20027;-73
2021/05/20 11:16:39;;;;;;;9.23;4.97;;;18.70;99.90;;;;;;4960217;28;20030;-74
2021/05/20 11:19:23;;;;;;;6.25;5.20;;;18.80;99.90;;;;;;4961573;28;20480;-73
2021/05/20 11:21:55;;;;;;;10.82;5.18;;;18.80;99.90;;;;;;4965974;28;20046;-73
2021/05/20 11:24:21;;;;;;;7.53;5.47;;;19.00;99.90;;;;;;4967662;28;20415;-74
2021/05/20 11:27:00;;;;;;;5.65;4.55;;;19.20;99.90;;;;;;4960741;28;20054;-73
2021/05/20 11:29:31;;;;;;;5.65;4.93;;;19.20;99.90;;;;;;4964854;28;20050;-75
2021/05/20 11:32:11;;;;;;;5.45;4.45;;;19.10;99.90;;;;;;4965531;28;20019;-74
2021/05/20 11:37:20;;;;;;;8.65;4.45;;;19.20;99.90;;;;;;4959541;28;20045;-74
2021/05/20 11:39:46;;;;;;;8.73;4.57;;;19.00;99.90;;;;;;4962582;28;20520;-75
2021/05/20 11:42:23;;;;;;;6.18;4.45;;;19.20;99.90;;;;;;4963840;28;20102;-75
2021/05/20 11:44:49;;;;;;;3.90;3.50;;;19.40;99.90;;;;;;4954195;28;20020;-74
2021/05/20 11:47:15;;;;;;;5.55;3.60;;;19.30;99.90;;;;;;4966301;28;20038;-75
2021/05/20 11:49:42;;;;;;;4.70;3.13;;;19.00;99.90;;;;;;4960622;28;20113;-75
2021/05/20 11:52:10;;;;;;;5.93;3.35;;;19.20;99.90;;;;;;4958241;28;20449;-75
2021/05/20 11:54:38;;;;;;;6.32;3.55;;;19.40;99.90;;;;;;4967400;28;20033;-75
2021/05/20 11:57:09;;;;;;;8.80;3.85;;;19.40;99.90;;;;;;4966789;28;20032;-75
2021/05/20 11:59:35;;;;;;;10.38;4.05;;;19.40;99.90;;;;;;4968375;28;20023;-76
2021/05/20 12:02:02;;;;;;;30.80;5.63;;;19.50;99.90;;;;;;4964506;28;20031;-76
2021/05/20 12:04:28;;;;;;;5.28;3.72;;;19.60;99.90;;;;;;4964956;28;20024;-75
2021/05/20 12:06:54;;;;;;;7.97;4.32;;;19.50;99.90;;;;;;4966096;28;20042;-74
2021/05/20 12:09:21;;;;;;;7.22;4.45;;;19.20;99.90;;;;;;4964985;28;20023;-72
2021/05/20 12:11:47;;;;;;;8.75;4.15;;;19.20;99.90;;;;;;4964250;28;20023;-72
2021/05/20 12:14:33;;;;;;;6.93;3.90;;;19.10;99.90;;;;;;4965023;28;20031;-74
2021/05/20 12:17:03;;;;;;;5.75;3.80;;;19.10;99.90;;;;;;4962354;28;20045;-74
2021/05/20 12:19:31;;;;;;;6.72;4.65;;;19.10;99.90;;;;;;4963112;28;20031;-75
2021/05/20 12:21:59;;;;;;;7.30;4.22;;;19.10;99.90;;;;;;4965596;28;20384;-75
2021/05/20 12:24:33;;;;;;;5.47;4.40;;;19.30;99.90;;;;;;4963870;28;20023;-74
2021/05/20 12:27:10;;;;;;;6.93;6.10;;;19.30;99.90;;;;;;4960904;28;20032;-74
2021/05/20 12:29:39;;;;;;;6.72;5.18;;;19.10;99.90;;;;;;4966640;28;20030;-74
2021/05/20 12:32:06;;;;;;;6.03;4.25;;;19.10;99.90;;;;;;4968641;28;20041;-74
2021/05/20 12:34:31;;;;;;;3.63;3.30;;;19.00;99.90;;;;;;4961062;28;20023;-72
2021/05/20 12:37:08;;;;;;;5.72;3.47;;;19.10;99.90;;;;;;4958612;28;20026;-72
2021/05/20 12:39:34;;;;;;;4.38;3.85;;;19.10;99.90;;;;;;4963120;28;20026;-74
2021/05/20 12:41:59;;;;;;;4.72;3.47;;;19.20;99.90;;;;;;4959996;28;20445;-74
2021/05/20 12:44:25;;;;;;;5.90;3.70;;;19.30;99.90;;;;;;4963196;28;20023;-74